sensor_id;sensor_type;location;lat;lon;timestamp;pressure;altitude;pressure_sealevel;temperature;humidity
61357;BME280;47227;46.752;23.576;2023-06-01T00:01:18;96548.98;;;13.58;79.66
61357;BME280;47227;46.752;23.576;2023-06-01T00:03:47;96546.45;;;13.56;79.98
61357;BME280;47227;46.752;23.576;2023-06-01T00:06:14;96545.31;;;13.52;79.78
61357;BME280;47227;46.752;23.576;2023-06-01T00:08:40;96545.23;;;13.46;79.56
61357;BME280;47227;46.752;23.576;2023-06-01T00:11:07;96547.27;;;13.41;79.50
61357;BME280;47227;46.752;23.576;2023-06-01T00:13:34;96542.16;;;13.36;79.40
61357;BME280;47227;46.752;23.576;2023-06-01T00:16:00;96541.40;;;13.31;79.22
61357;BME280;47227;46.752;23.576;2023-06-01T00:18:27;96539.94;;;13.25;79.21
61357;BME280;47227;46.752;23.576;2023-06-01T00:20:53;96540.85;;;13.19;79.18
61357;BME280;47227;46.752;23.576;2023-06-01T00:23:20;96536.88;;;13.14;79.33
61357;BME280;47227;46.752;23.576;2023-06-01T00:25:47;96540.27;;;13.08;79.29
61357;BME280;47227;46.752;23.576;2023-06-01T00:28:14;96538.66;;;13.03;79.30
61357;BME280;47227;46.752;23.576;2023-06-01T00:30:41;96538.63;;;12.97;79.21
61357;BME280;47227;46.752;23.576;2023-06-01T00:33:08;96540.98;;;12.92;79.40
61357;BME280;47227;46.752;23.576;2023-06-01T00:35:35;96542.23;;;12.90;79.54
61357;BME280;47227;46.752;23.576;2023-06-01T00:38:02;96541.48;;;12.89;79.78
61357;BME280;47227;46.752;23.576;2023-06-01T00:40:28;96541.12;;;12.89;79.90
61357;BME280;47227;46.752;23.576;2023-06-01T00:42:55;96542.50;;;12.90;80.15
61357;BME280;47227;46.752;23.576;2023-06-01T00:45:21;96541.91;;;12.93;80.27
61357;BME280;47227;46.752;23.576;2023-06-01T00:47:48;96544.48;;;12.96;80.37
61357;BME280;47227;46.752;23.576;2023-06-01T00:50:15;96541.70;;;13.00;80.50
61357;BME280;47227;46.752;23.576;2023-06-01T00:52:42;96542.61;;;13.02;80.54
61357;BME280;47227;46.752;23.576;2023-06-01T00:55:09;96545.56;;;13.05;80.63
61357;BME280;47227;46.752;23.576;2023-06-01T00:57:38;96549.46;;;13.07;80.53
61357;BME280;47227;46.752;23.576;2023-06-01T01:00:06;96549.23;;;13.08;80.55
61357;BME280;47227;46.752;23.576;2023-06-01T01:02:38;96547.01;;;13.09;80.59
61357;BME280;47227;46.752;23.576;2023-06-01T01:05:07;96540.59;;;13.09;80.55
61357;BME280;47227;46.752;23.576;2023-06-01T01:07:51;96538.48;;;13.10;80.71
61357;BME280;47227;46.752;23.576;2023-06-01T01:10:38;96539.48;;;13.08;80.45
61357;BME280;47227;46.752;23.576;2023-06-01T01:13:20;96543.30;;;13.04;80.49
61357;BME280;47227;46.752;23.576;2023-06-01T01:18:44;96548.19;;;12.93;80.39
61357;BME280;47227;46.752;23.576;2023-06-01T01:21:13;96548.34;;;12.88;80.33
61357;BME280;47227;46.752;23.576;2023-06-01T01:24:15;96553.45;;;12.82;80.21
61357;BME280;47227;46.752;23.576;2023-06-01T01:29:31;96548.86;;;12.65;81.63
61357;BME280;47227;46.752;23.576;2023-06-01T01:32:00;96549.95;;;12.56;81.17
61357;BME280;47227;46.752;23.576;2023-06-01T01:34:30;96551.07;;;12.49;81.07
61357;BME280;47227;46.752;23.576;2023-06-01T01:36:58;96553.81;;;12.43;80.96
61357;BME280;47227;46.752;23.576;2023-06-01T01:39:25;96550.55;;;12.35;81.06
61357;BME280;47227;46.752;23.576;2023-06-01T01:41:51;96550.96;;;12.28;81.14
61357;BME280;47227;46.752;23.576;2023-06-01T01:44:19;96549.35;;;12.23;81.40
61357;BME280;47227;46.752;23.576;2023-06-01T01:47:06;96549.25;;;12.20;81.50
61357;BME280;47227;46.752;23.576;2023-06-01T01:49:44;96550.39;;;12.17;83.56
61357;BME280;47227;46.752;23.576;2023-06-01T01:52:18;96545.13;;;12.15;84.42
61357;BME280;47227;46.752;23.576;2023-06-01T01:54:49;96545.46;;;12.13;84.39
61357;BME280;47227;46.752;23.576;2023-06-01T01:57:18;96547.88;;;12.13;84.09
61357;BME280;47227;46.752;23.576;2023-06-01T01:59:46;96542.46;;;12.12;86.95
61357;BME280;47227;46.752;23.576;2023-06-01T02:02:13;96543.02;;;12.09;86.87
61357;BME280;47227;46.752;23.576;2023-06-01T02:04:41;96541.53;;;12.07;85.42
61357;BME280;47227;46.752;23.576;2023-06-01T02:07:08;96539.98;;;12.09;84.97
61357;BME280;47227;46.752;23.576;2023-06-01T03:52:25;96544.57;;;12.01;83.90
61357;BME280;47227;46.752;23.576;2023-06-01T07:20:30;96514.68;;;18.43;69.04
61357;BME280;47227;46.752;23.576;2023-06-01T07:22:57;96508.51;;;18.50;68.00
61357;BME280;47227;46.752;23.576;2023-06-01T07:25:23;96509.21;;;18.49;66.89
61357;BME280;47227;46.752;23.576;2023-06-01T07:27:50;96509.67;;;18.44;66.65
61357;BME280;47227;46.752;23.576;2023-06-01T07:30:17;96511.03;;;18.52;67.47
61357;BME280;47227;46.752;23.576;2023-06-01T07:32:44;96508.70;;;18.67;67.75
61357;BME280;47227;46.752;23.576;2023-06-01T07:35:11;96508.52;;;18.75;67.08
61357;BME280;47227;46.752;23.576;2023-06-01T07:37:41;96506.73;;;18.83;66.84
61357;BME280;47227;46.752;23.576;2023-06-01T07:40:08;96506.24;;;18.94;67.61
61357;BME280;47227;46.752;23.576;2023-06-01T07:42:35;96507.98;;;19.08;67.21
61357;BME280;47227;46.752;23.576;2023-06-01T07:45:02;96505.16;;;19.17;67.16
61357;BME280;47227;46.752;23.576;2023-06-01T07:47:29;96502.60;;;19.29;67.00
61357;BME280;47227;46.752;23.576;2023-06-01T07:49:57;96501.14;;;19.40;66.81
61357;BME280;47227;46.752;23.576;2023-06-01T07:52:24;96502.31;;;19.51;65.88
61357;BME280;47227;46.752;23.576;2023-06-01T07:54:51;96495.80;;;19.47;64.09
61357;BME280;47227;46.752;23.576;2023-06-01T07:57:20;96490.79;;;19.50;64.54
61357;BME280;47227;46.752;23.576;2023-06-01T07:59:47;96490.60;;;19.66;65.32
61357;BME280;47227;46.752;23.576;2023-06-01T08:02:14;96487.50;;;19.84;65.09
61357;BME280;47227;46.752;23.576;2023-06-01T08:04:41;96482.00;;;20.01;64.86
61357;BME280;47227;46.752;23.576;2023-06-01T08:07:08;96483.18;;;20.18;64.53
61357;BME280;47227;46.752;23.576;2023-06-01T08:09:35;96477.52;;;20.36;64.11
61357;BME280;47227;46.752;23.576;2023-06-01T08:12:04;96476.99;;;20.44;59.91
61357;BME280;47227;46.752;23.576;2023-06-01T08:14:32;96471.06;;;20.47;58.93
61357;BME280;47227;46.752;23.576;2023-06-01T08:17:01;96473.12;;;20.60;59.72
61357;BME280;47227;46.752;23.576;2023-06-01T08:19:28;96471.21;;;20.74;60.32
61357;BME280;47227;46.752;23.576;2023-06-01T08:21:55;96468.73;;;20.91;60.41
61357;BME280;47227;46.752;23.576;2023-06-01T08:24:21;96466.75;;;21.06;58.83
61357;BME280;47227;46.752;23.576;2023-06-01T08:26:49;96462.77;;;21.21;58.16
61357;BME280;47227;46.752;23.576;2023-06-01T08:29:15;96466.69;;;21.35;58.20
61357;BME280;47227;46.752;23.576;2023-06-01T08:31:43;96467.90;;;21.49;57.15
61357;BME280;47227;46.752;23.576;2023-06-01T08:34:09;96469.25;;;21.59;55.43
61357;BME280;47227;46.752;23.576;2023-06-01T08:36:36;96467.71;;;21.64;55.39
61357;BME280;47227;46.752;23.576;2023-06-01T08:39:20;96464.45;;;21.73;56.30
61357;BME280;47227;46.752;23.576;2023-06-01T08:42:03;96460.52;;;21.81;54.66
61357;BME280;47227;46.752;23.576;2023-06-01T08:44:39;96462.56;;;21.96;56.02
61357;BME280;47227;46.752;23.576;2023-06-01T08:47:07;96462.07;;;22.17;56.07
61357;BME280;47227;46.752;23.576;2023-06-01T12:37:35;96284.94;;;30.13;30.61
61357;BME280;47227;46.752;23.576;2023-06-01T12:52:05;96270.80;;;33.04;25.97
61357;BME280;47227;46.752;23.576;2023-06-01T12:57:26;96270.42;;;33.94;24.75
61357;BME280;47227;46.752;23.576;2023-06-01T13:11:18;96267.32;;;33.27;23.53
61357;BME280;47227;46.752;23.576;2023-06-01T13:28:03;96241.70;;;33.54;24.56
61357;BME280;47227;46.752;23.576;2023-06-01T14:06:16;96227.29;;;31.00;27.82
61357;BME280;47227;46.752;23.576;2023-06-01T14:18:01;96238.87;;;30.32;30.30
61357;BME280;47227;46.752;23.576;2023-06-01T14:21:25;96239.19;;;29.31;32.02
61357;BME280;47227;46.752;23.576;2023-06-01T15:18:53;96212.86;;;23.18;56.06
61357;BME280;47227;46.752;23.576;2023-06-01T15:22:04;96201.73;;;24.44;54.48
61357;BME280;47227;46.752;23.576;2023-06-01T15:24:42;96193.59;;;25.54;50.97
61357;BME280;47227;46.752;23.576;2023-06-01T15:27:20;96191.86;;;26.26;46.63
61357;BME280;47227;46.752;23.576;2023-06-01T15:46:28;96171.29;;;30.42;37.82
61357;BME280;47227;46.752;23.576;2023-06-01T15:48:57;96172.83;;;30.87;36.97
61357;BME280;47227;46.752;23.576;2023-06-01T15:51:24;96171.38;;;31.23;36.02
61357;BME280;47227;46.752;23.576;2023-06-01T15:53:53;96176.05;;;31.40;35.69
61357;BME280;47227;46.752;23.576;2023-06-01T15:56:42;96180.50;;;31.57;34.96
61357;BME280;47227;46.752;23.576;2023-06-01T15:59:49;96178.94;;;31.43;32.29
61357;BME280;47227;46.752;23.576;2023-06-01T16:03:07;96181.09;;;31.12;32.14
61357;BME280;47227;46.752;23.576;2023-06-01T16:05:58;96179.81;;;31.20;31.86
61357;BME280;47227;46.752;23.576;2023-06-01T16:08:46;96179.05;;;31.28;32.05
61357;BME280;47227;46.752;23.576;2023-06-01T16:11:19;96179.27;;;31.20;30.87
61357;BME280;47227;46.752;23.576;2023-06-01T16:14:05;96180.28;;;31.01;31.27
61357;BME280;47227;46.752;23.576;2023-06-01T16:16:39;96180.03;;;31.17;30.14
61357;BME280;47227;46.752;23.576;2023-06-01T16:19:16;96175.89;;;31.48;30.18
61357;BME280;47227;46.752;23.576;2023-06-01T16:22:09;96173.52;;;31.64;29.42
61357;BME280;47227;46.752;23.576;2023-06-01T22:33:32;96165.06;;;14.09;71.96
61357;BME280;47227;46.752;23.576;2023-06-01T22:50:52;96165.98;;;14.03;72.66
